Time;durP1;ratioP1;P1;durP2;ratioP2;P2;SDS_P1;SDS_P2;PMS_P1;PMS_P2;Temp;Humidity;BMP_temperature;BMP_pressure;BME280_temperature;BME280_humidity;BME280_pressure;Samples;Min_cycle;Max_cycle;Signal;HPM_P1;HPM_P2
2023/03/19 00:02:00;;;;;;;19.13;17.08;;;11.40;99.90;;;;;;5052676;28;20041;-72
2023/03/19 00:04:27;;;;;;;18.77;16.15;;;11.30;99.90;;;;;;5053134;28;20087;-72
2023/03/19 00:06:53;;;;;;;22.25;17.55;;;11.30;99.90;;;;;;5053410;28;20134;-72
2023/03/19 00:09:19;;;;;;;18.27;16.48;;;11.30;99.90;;;;;;5053048;28;20603;-72
2023/03/19 00:11:46;;;;;;;17.98;16.23;;;11.40;99.90;;;;;;5053281;28;20037;-72
2023/03/19 00:14:11;;;;;;;17.50;15.70;;;11.40;99.90;;;;;;5053173;28;20072;-72
2023/03/19 00:16:37;;;;;;;19.17;15.90;;;11.30;99.90;;;;;;5052917;28;20497;-72
2023/03/19 00:19:03;;;;;;;16.90;14.82;;;11.30;99.90;;;;;;5052799;28;20143;-72
2023/03/19 00:21:30;;;;;;;16.98;14.60;;;11.40;99.90;;;;;;5053101;28;20041;-72
2023/03/19 00:24:01;;;;;;;16.13;14.35;;;11.30;99.90;;;;;;5052733;28;20549;-72
2023/03/19 00:26:28;;;;;;;16.73;14.10;;;11.40;99.90;;;;;;5052759;28;20168;-72
2023/03/19 00:28:54;;;;;;;16.48;14.27;;;11.40;99.90;;;;;;5052691;28;20048;-72
2023/03/19 00:31:20;;;;;;;16.05;14.40;;;11.30;99.90;;;;;;5053888;28;20441;-72
2023/03/19 00:33:46;;;;;;;16.92;15.10;;;11.30;99.90;;;;;;5069210;28;20036;-72
2023/03/19 00:36:12;;;;;;;17.33;15.30;;;11.30;99.90;;;;;;5052838;28;20051;-72
2023/03/19 00:38:37;;;;;;;16.58;14.85;;;11.30;99.90;;;;;;5052453;28;20497;-72
2023/03/19 00:41:04;;;;;;;17.27;15.57;;;11.30;99.90;;;;;;5052703;28;20045;-72
2023/03/19 00:43:30;;;;;;;16.58;14.82;;;11.30;99.90;;;;;;5052595;28;20072;-72
2023/03/19 00:45:56;;;;;;;17.08;15.18;;;11.20;99.90;;;;;;5069004;28;20087;-72
2023/03/19 00:48:23;;;;;;;17.58;15.00;;;11.20;99.90;;;;;;5052330;28;20497;-72
2023/03/19 00:50:49;;;;;;;16.92;15.23;;;11.20;99.90;;;;;;5068992;28;20041;-72
2023/03/19 00:53:15;;;;;;;16.50;13.88;;;11.20;99.90;;;;;;5052165;28;20044;-71
2023/03/19 00:55:41;;;;;;;16.83;14.50;;;11.20;99.90;;;;;;5052104;28;20044;-72
2023/03/19 00:58:09;;;;;;;16.92;14.93;;;11.20;99.90;;;;;;5052330;28;20127;-73
2023/03/19 01:00:35;;;;;;;16.77;14.95;;;11.20;99.90;;;;;;5052150;28;20416;-73
2023/03/19 01:03:01;;;;;;;16.88;15.18;;;11.20;99.90;;;;;;5035747;28;20379;-73
2023/03/19 01:05:26;;;;;;;16.50;14.50;;;11.20;99.90;;;;;;5068659;28;20047;-72
2023/03/19 01:07:52;;;;;;;15.63;14.05;;;11.10;99.90;;;;;;5035713;28;20045;-72
2023/03/19 01:10:22;;;;;;;16.25;14.02;;;11.10;99.90;;;;;;5052290;28;20032;-72
2023/03/19 01:12:49;;;;;;;15.98;14.00;;;11.20;99.90;;;;;;5051192;28;20037;-71
2023/03/19 01:15:15;;;;;;;16.55;13.98;;;11.10;99.90;;;;;;5051855;28;20041;-72
2023/03/19 01:17:41;;;;;;;15.05;13.43;;;11.10;99.90;;;;;;5068777;28;20044;-72
2023/03/19 01:20:11;;;;;;;15.55;13.30;;;11.10;99.90;;;;;;5052164;28;20041;-72
2023/03/19 01:22:39;;;;;;;15.00;13.50;;;11.10;99.90;;;;;;5035592;28;20103;-72
2023/03/19 01:25:05;;;;;;;15.07;13.50;;;11.10;99.90;;;;;;5051787;28;20045;-72
2023/03/19 01:27:31;;;;;;;14.63;12.40;;;11.00;99.90;;;;;;5052104;28;20059;-72
2023/03/19 01:29:56;;;;;;;13.75;11.70;;;11.00;99.90;;;;;;5053037;28;20401;-72
2023/03/19 01:32:22;;;;;;;14.50;10.95;;;11.00;99.90;;;;;;5051794;28;20087;-72
2023/03/19 01:34:48;;;;;;;13.88;11.02;;;11.00;99.90;;;;;;5051713;28;20040;-72
2023/03/19 01:37:14;;;;;;;12.27;10.77;;;11.00;99.90;;;;;;5035495;28;20071;-72
2023/03/19 01:39:39;;;;;;;9.98;8.45;;;10.90;99.90;;;;;;5068378;28;20040;-72
2023/03/19 01:42:06;;;;;;;10.20;7.97;;;10.90;99.90;;;;;;5051611;28;20040;-72
2023/03/19 01:44:37;;;;;;;10.75;8.23;;;10.90;99.90;;;;;;5051583;28;20052;-72
2023/03/19 01:47:06;;;;;;;10.50;8.57;;;10.90;99.90;;;;;;5051587;28;20037;-72
2023/03/19 01:49:33;;;;;;;11.30;8.70;;;10.90;99.90;;;;;;5051892;28;20517;-72
2023/03/19 01:52:01;;;;;;;12.10;9.65;;;10.80;99.90;;;;;;5051615;28;20128;-72
2023/03/19 01:54:30;;;;;;;12.10;9.27;;;10.80;99.90;;;;;;5051353;28;20051;-72
2023/03/19 01:57:02;;;;;;;11.10;9.55;;;10.80;99.90;;;;;;5051573;28;20074;-72
2023/03/19 01:59:35;;;;;;;12.40;8.80;;;10.80;99.90;;;;;;5051488;28;20044;-72
2023/03/19 02:02:06;;;;;;;10.85;7.53;;;10.80;99.90;;;;;;5051500;28;20527;-72
2023/03/19 02:04:34;;;;;;;11.60;8.18;;;10.80;99.90;;;;;;5051474;28;20037;-72
2023/03/19 02:07:01;;;;;;;8.25;7.15;;;10.70;99.90;;;;;;5051686;28;20037;-72
2023/03/19 02:09:29;;;;;;;9.68;7.57;;;10.70;99.90;;;;;;5051397;28;20409;-72
2023/03/19 02:11:55;;;;;;;7.40;6.32;;;10.70;99.90;;;;;;5051343;28;20408;-72
2023/03/19 02:14:21;;;;;;;8.95;6.50;;;10.70;99.90;;;;;;5051297;28;20498;-72
2023/03/19 02:16:47;;;;;;;8.10;5.72;;;10.70;99.90;;;;;;5051617;28;20056;-72
2023/03/19 02:19:20;;;;;;;8.95;6.35;;;10.70;99.90;;;;;;5051253;28;20399;-72
2023/03/19 02:21:47;;;;;;;7.32;6.15;;;10.70;99.90;;;;;;5051559;28;20077;-72
2023/03/19 02:24:43;;;;;;;9.15;5.90;;;10.60;99.90;;;;;;5052937;28;20068;-72
2023/03/19 02:27:09;;;;;;;8.07;5.30;;;10.60;99.90;;;;;;5051893;28;20053;-72
2023/03/19 02:29:34;;;;;;;7.95;5.85;;;10.60;99.90;;;;;;5056200;28;20051;-72
2023/03/19 02:32:02;;;;;;;7.72;5.55;;;10.50;99.90;;;;;;5054899;28;20048;-72
2023/03/19 02:34:39;;;;;;;8.43;5.85;;;10.50;99.90;;;;;;5054827;28;20045;-72
2023/03/19 02:37:16;;;;;;;8.07;5.53;;;10.40;99.90;;;;;;5054818;28;20517;-72
2023/03/19 02:40:06;;;;;;;7.75;5.47;;;10.40;99.90;;;;;;5054711;28;20405;-72
2023/03/19 02:42:32;;;;;;;5.78;5.05;;;10.40;99.90;;;;;;5038386;28;20048;-72
2023/03/19 02:44:58;;;;;;;5.85;4.97;;;10.40;99.90;;;;;;5054854;28;20131;-72
2023/03/19 02:47:25;;;;;;;5.68;5.00;;;10.40;99.90;;;;;;5054621;28;20122;-72
2023/03/19 02:49:51;;;;;;;7.72;5.28;;;10.50;99.90;;;;;;5054592;28;20048;-73
2023/03/19 02:52:18;;;;;;;7.68;4.95;;;10.40;99.90;;;;;;5054554;28;20037;-73
2023/03/19 02:54:44;;;;;;;5.43;4.55;;;10.50;99.90;;;;;;5054539;28;20044;-72
2023/03/19 02:57:09;;;;;;;7.30;4.25;;;10.50;99.90;;;;;;5054527;28;20387;-72
2023/03/19 02:59:35;;;;;;;6.25;4.15;;;10.50;99.90;;;;;;5054336;28;20048;-72
2023/03/19 03:02:01;;;;;;;5.50;4.40;;;10.50;99.90;;;;;;5054642;28;20045;-72
2023/03/19 03:04:26;;;;;;;4.93;4.43;;;10.50;99.90;;;;;;5054229;28;20044;-72
2023/03/19 03:06:52;;;;;;;6.10;4.60;;;10.60;99.90;;;;;;5055878;28;20037;-72
2023/03/19 03:09:18;;;;;;;7.03;4.68;;;10.50;99.90;;;;;;5054253;28;20053;-72
2023/03/19 03:11:43;;;;;;;6.22;4.32;;;10.50;99.90;;;;;;5055702;28;20048;-72
2023/03/19 03:14:09;;;;;;;7.45;4.88;;;10.50;99.90;;;;;;5054095;28;20052;-73
2023/03/19 03:16:36;;;;;;;7.03;4.38;;;10.50;99.90;;;;;;5054316;28;20084;-72
2023/03/19 03:19:03;;;;;;;6.45;4.55;;;10.50;99.90;;;;;;5053987;28;20040;-72
2023/03/19 03:21:28;;;;;;;7.47;4.30;;;10.40;99.90;;;;;;5054264;28;20098;-72
2023/03/19 03:23:55;;;;;;;6.68;4.47;;;10.40;99.90;;;;;;5053887;28;20506;-72
2023/03/19 03:26:21;;;;;;;6.68;4.28;;;10.50;99.90;;;;;;5053931;28;20045;-72
2023/03/19 03:28:46;;;;;;;5.88;4.10;;;10.40;99.90;;;;;;5053924;28;20098;-72
2023/03/19 03:31:13;;;;;;;7.90;4.55;;;10.50;99.90;;;;;;5053796;28;20072;-72
2023/03/19 03:33:39;;;;;;;6.57;4.18;;;10.40;99.90;;;;;;5053720;28;20119;-72
2023/03/19 03:36:05;;;;;;;5.55;4.97;;;10.40;99.90;;;;;;5052804;28;20040;-72
2023/03/19 03:38:33;;;;;;;5.95;4.50;;;10.40;99.90;;;;;;5053618;28;20048;-72
2023/03/19 03:40:59;;;;;;;6.78;4.97;;;10.40;99.90;;;;;;5055139;28;20052;-72
2023/03/19 03:43:25;;;;;;;6.93;4.45;;;10.40;99.90;;;;;;5053541;28;20040;-72
2023/03/19 03:45:51;;;;;;;5.75;3.72;;;10.30;99.90;;;;;;5053549;28;20037;-72
2023/03/19 03:48:17;;;;;;;5.57;4.22;;;10.40;99.90;;;;;;5053515;28;20045;-72
2023/03/19 03:50:43;;;;;;;6.28;3.47;;;10.30;99.90;;;;;;5053443;28;20040;-73
2023/03/19 03:53:10;;;;;;;3.95;3.13;;;10.30;99.90;;;;;;5053693;28;20367;-73
2023/03/19 03:55:36;;;;;;;5.68;3.08;;;10.30;99.90;;;;;;5053134;28;20084;-72
2023/03/19 03:58:02;;;;;;;4.05;2.95;;;10.30;99.90;;;;;;5053520;28;20072;-72
2023/03/19 04:00:27;;;;;;;5.70;3.10;;;10.30;99.90;;;;;;5053294;28;20564;-72
2023/03/19 04:02:53;;;;;;;4.50;2.90;;;10.20;99.90;;;;;;5054882;28;20041;-72
2023/03/19 04:05:19;;;;;;;3.70;3.22;;;10.30;99.90;;;;;;5053122;28;20063;-72
2023/03/19 04:07:45;;;;;;;4.43;3.28;;;10.30;99.90;;;;;;5054940;28;20037;-72
2023/03/19 04:10:11;;;;;;;5.18;3.83;;;10.30;99.90;;;;;;5053073;28;20045;-72
2023/03/19 04:12:38;;;;;;;4.68;3.40;;;10.30;99.90;;;;;;5053271;28;20051;-72
2023/03/19 04:15:05;;;;;;;5.32;3.63;;;10.20;99.90;;;;;;5052939;28;20167;-72
2023/03/19 04:17:31;;;;;;;7.25;4.10;;;10.20;99.90;;;;;;5053681;28;20493;-72
2023/03/19 04:19:56;;;;;;;8.13;4.50;;;10.30;99.90;;;;;;5052813;28;20120;-72
2023/03/19 04:22:22;;;;;;;6.68;4.28;;;10.20;99.90;;;;;;5052826;28;20072;-72
2023/03/19 04:24:48;;;;;;;4.90;4.07;;;10.20;99.90;;;;;;5052994;28;20129;-72
2023/03/19 04:27:13;;;;;;;7.45;5.00;;;10.20;99.90;;;;;;5053010;28;20405;-72
2023/03/19 04:29:39;;;;;;;7.75;5.20;;;10.30;99.90;;;;;;5052955;28;20406;-72
2023/03/19 04:32:05;;;;;;;7.53;5.32;;;10.20;99.90;;;;;;5052640;28;20041;-72
2023/03/19 04:34:31;;;;;;;7.30;5.25;;;10.30;99.90;;;;;;5052848;28;20090;-72
2023/03/19 04:36:57;;;;;;;7.30;5.63;;;10.20;99.90;;;;;;5052902;28;20432;-72
2023/03/19 04:39:23;;;;;;;7.00;5.55;;;10.20;99.90;;;;;;5035897;28;20485;-72
2023/03/19 04:41:49;;;;;;;8.27;5.90;;;10.20;99.90;;;;;;5052514;28;20090;-72
2023/03/19 04:44:14;;;;;;;6.82;5.88;;;10.20;99.90;;;;;;5052704;28;20044;-72
2023/03/19 04:46:40;;;;;;;7.85;6.00;;;10.10;99.90;;;;;;5052613;28;20044;-72
2023/03/19 04:49:06;;;;;;;9.23;6.03;;;10.00;99.90;;;;;;5052382;28;20517;-72
2023/03/19 04:51:32;;;;;;;6.97;6.10;;;10.00;99.90;;;;;;5052374;28;20060;-72
2023/03/19 04:53:58;;;;;;;8.75;6.82;;;9.90;99.90;;;;;;5052250;28;20045;-71
2023/03/19 04:56:24;;;;;;;7.28;6.53;;;9.90;99.90;;;;;;5052164;28;20078;-72
2023/03/19 04:58:50;;;;;;;8.70;6.70;;;9.80;99.90;;;;;;5052154;28;20045;-72
2023/03/19 05:01:16;;;;;;;8.40;6.63;;;9.80;99.90;;;;;;5052125;28;20041;-72
2023/03/19 05:03:41;;;;;;;7.70;6.18;;;9.70;99.90;;;;;;5052014;28;20048;-72
2023/03/19 05:06:07;;;;;;;8.50;7.13;;;9.60;99.90;;;;;;5052101;28;20051;-72
2023/03/19 05:08:32;;;;;;;8.52;7.22;;;9.60;99.90;;;;;;5052052;28;20107;-72
2023/03/19 05:10:58;;;;;;;8.48;6.45;;;9.50;99.90;;;;;;5052012;28;20077;-72
2023/03/19 05:13:24;;;;;;;7.88;6.90;;;9.50;99.90;;;;;;5051921;28;20052;-72
2023/03/19 05:15:53;;;;;;;10.82;6.53;;;9.50;99.90;;;;;;5052246;28;20043;-72
2023/03/19 05:18:18;;;;;;;7.47;5.72;;;9.50;99.90;;;;;;5035489;28;20040;-72
2023/03/19 05:20:44;;;;;;;7.65;6.40;;;9.50;99.90;;;;;;5052164;28;20039;-72
2023/03/19 05:23:10;;;;;;;7.90;6.20;;;9.50;99.90;;;;;;5051843;28;20486;-72
2023/03/19 05:25:35;;;;;;;7.85;6.25;;;9.40;99.90;;;;;;5052029;28;20086;-72
2023/03/19 05:28:02;;;;;;;9.13;6.03;;;9.40;99.90;;;;;;5051823;28;20405;-72
2023/03/19 05:30:28;;;;;;;6.65;5.70;;;9.50;99.90;;;;;;5035203;28;20037;-72
2023/03/19 05:32:56;;;;;;;7.90;5.60;;;9.40;99.90;;;;;;5051773;28;20043;-72
2023/03/19 05:35:21;;;;;;;5.93;5.18;;;9.40;99.90;;;;;;5051709;28;20090;-72
2023/03/19 05:37:47;;;;;;;6.28;5.30;;;9.40;99.90;;;;;;5051697;28;20033;-72
2023/03/19 05:40:13;;;;;;;6.50;5.00;;;9.40;99.90;;;;;;5051716;28;20080;-72
2023/03/19 05:42:38;;;;;;;8.95;5.70;;;9.40;99.90;;;;;;5051694;28;20079;-72
2023/03/19 05:45:04;;;;;;;7.65;5.63;;;9.40;99.90;;;;;;5051576;28;20075;-72
2023/03/19 05:47:30;;;;;;;7.22;5.57;;;9.40;99.90;;;;;;5051579;28;20056;-72
2023/03/19 05:49:56;;;;;;;6.93;5.50;;;9.40;99.90;;;;;;5051628;28;20033;-72
2023/03/19 05:52:22;;;;;;;9.68;6.43;;;9.40;99.90;;;;;;5051608;28;20037;-72
2023/03/19 05:54:48;;;;;;;6.13;5.53;;;9.40;99.90;;;;;;5051277;28;20049;-72
2023/03/19 05:57:15;;;;;;;7.15;6.10;;;9.40;99.90;;;;;;5051757;28;20494;-72
2023/03/19 05:59:40;;;;;;;8.43;5.88;;;9.40;99.90;;;;;;5053984;28;20494;-72
2023/03/19 06:02:06;;;;;;;9.10;6.32;;;9.30;99.90;;;;;;5055518;28;20128;-72
2023/03/19 06:04:32;;;;;;;7.78;6.13;;;9.40;99.90;;;;;;5055401;28;20123;-73
2023/03/19 06:06:58;;;;;;;6.45;5.82;;;9.30;99.90;;;;;;5055683;28;20035;-73
2023/03/19 06:09:23;;;;;;;7.53;6.05;;;9.20;99.90;;;;;;5055370;28;20049;-73
2023/03/19 06:11:49;;;;;;;8.43;5.93;;;9.30;99.90;;;;;;5038784;28;20039;-73
2023/03/19 06:14:15;;;;;;;8.25;5.70;;;9.20;99.90;;;;;;5055418;28;20040;-72
2023/03/19 06:16:40;;;;;;;7.72;6.38;;;9.10;99.90;;;;;;5055215;28;20394;-72
2023/03/19 06:19:06;;;;;;;8.55;6.45;;;9.10;99.90;;;;;;5071817;28;20039;-72
2023/03/19 06:21:31;;;;;;;8.38;6.05;;;9.10;99.90;;;;;;5055400;28;20039;-72
2023/03/19 06:23:57;;;;;;;9.25;6.68;;;9.10;99.90;;;;;;5055296;28;20440;-72
2023/03/19 06:26:26;;;;;;;9.48;6.88;;;9.10;99.90;;;;;;5055029;28;20382;-72
2023/03/19 06:28:52;;;;;;;9.10;7.43;;;9.10;99.90;;;;;;5056306;28;20087;-72
2023/03/19 06:31:18;;;;;;;10.02;7.72;;;9.10;99.90;;;;;;5055026;28;20052;-72
2023/03/19 06:33:44;;;;;;;9.80;7.43;;;9.10;99.90;;;;;;5054790;28;20041;-72
2023/03/19 06:36:09;;;;;;;8.15;7.20;;;9.10;99.90;;;;;;5054945;28;20120;-72
2023/03/19 06:38:35;;;;;;;11.23;7.63;;;9.10;99.90;;;;;;5055009;28;20074;-72
2023/03/19 06:41:01;;;;;;;10.27;7.57;;;9.10;99.90;;;;;;5054825;28;20481;-72
2023/03/19 06:43:27;;;;;;;9.82;7.65;;;9.10;99.90;;;;;;5054933;28;20041;-72
2023/03/19 06:45:53;;;;;;;9.80;8.25;;;9.10;99.90;;;;;;5071422;28;20040;-72
2023/03/19 06:48:18;;;;;;;9.65;8.15;;;9.10;99.90;;;;;;5054949;28;20048;-72
2023/03/19 06:50:45;;;;;;;9.00;7.80;;;9.10;99.90;;;;;;5054635;28;20591;-72
2023/03/19 06:53:12;;;;;;;9.25;8.25;;;9.10;99.90;;;;;;5054814;28;20045;-72
2023/03/19 06:55:38;;;;;;;10.82;8.75;;;9.10;99.90;;;;;;5054618;28;20139;-72
2023/03/19 06:58:05;;;;;;;9.90;8.75;;;9.10;99.90;;;;;;5054660;28;20041;-72
2023/03/19 07:00:31;;;;;;;13.05;9.43;;;9.10;99.90;;;;;;5054475;28;20045;-72
2023/03/19 07:02:57;;;;;;;11.20;8.82;;;9.20;99.90;;;;;;5037804;28;20037;-72
2023/03/19 07:05:22;;;;;;;9.85;8.85;;;9.20;99.90;;;;;;5054546;28;20091;-72
2023/03/19 07:07:48;;;;;;;10.70;9.60;;;9.30;99.90;;;;;;5054269;28;20489;-72
2023/03/19 07:10:15;;;;;;;11.90;10.10;;;9.30;99.90;;;;;;5053160;28;20087;-72
2023/03/19 07:12:41;;;;;;;13.38;10.10;;;9.40;99.90;;;;;;5037664;28;20086;-72
2023/03/19 07:15:07;;;;;;;12.13;9.98;;;9.30;99.90;;;;;;5054083;28;20044;-72
2023/03/19 07:17:32;;;;;;;11.35;10.15;;;9.40;99.90;;;;;;5054124;28;20047;-72
2023/03/19 07:19:58;;;;;;;12.18;10.35;;;9.50;99.90;;;;;;5054033;28;20072;-72
2023/03/19 07:22:24;;;;;;;12.45;11.02;;;9.50;99.90;;;;;;5054269;28;20106;-72
2023/03/19 07:24:50;;;;;;;13.65;11.63;;;9.60;99.90;;;;;;5054162;28;20041;-72
2023/03/19 07:27:16;;;;;;;12.27;10.98;;;9.70;99.90;;;;;;5053946;28;20071;-72
2023/03/19 07:29:41;;;;;;;12.48;11.18;;;9.70;99.90;;;;;;5053865;28;20049;-72
2023/03/19 07:32:09;;;;;;;15.70;12.07;;;9.80;99.90;;;;;;5053876;28;20124;-72
2023/03/19 07:34:36;;;;;;;12.38;10.63;;;9.90;99.90;;;;;;5070427;28;20052;-72
2023/03/19 07:37:01;;;;;;;12.00;10.77;;;9.90;99.90;;;;;;5053742;28;20163;-73
2023/03/19 07:39:27;;;;;;;11.68;10.48;;;10.00;99.90;;;;;;5053592;28;20127;-73
2023/03/19 07:41:53;;;;;;;13.27;10.82;;;10.00;99.90;;;;;;5053663;28;20041;-73
2023/03/19 07:44:18;;;;;;;10.07;9.05;;;10.10;99.90;;;;;;5053495;28;20064;-72
2023/03/19 07:46:44;;;;;;;11.57;9.60;;;10.20;99.90;;;;;;5036983;28;20033;-72
2023/03/19 07:49:09;;;;;;;10.57;9.35;;;10.20;99.90;;;;;;5053750;28;20037;-72
2023/03/19 07:51:35;;;;;;;12.27;9.90;;;10.30;99.90;;;;;;5053471;28;20468;-72
2023/03/19 07:54:01;;;;;;;11.32;9.48;;;10.30;99.90;;;;;;5053341;28;20125;-72
2023/03/19 07:56:27;;;;;;;12.35;10.00;;;10.40;99.90;;;;;;5053540;28;20044;-72
2023/03/19 07:58:52;;;;;;;10.50;9.40;;;10.50;99.90;;;;;;5036696;28;20033;-72
2023/03/19 08:01:18;;;;;;;11.68;10.48;;;10.60;99.90;;;;;;5053284;28;20037;-74
2023/03/19 08:03:44;;;;;;;13.77;11.50;;;10.70;99.90;;;;;;5053412;28;20053;-72
2023/03/19 08:06:09;;;;;;;12.55;10.77;;;10.80;99.90;;;;;;5053436;28;20512;-72
2023/03/19 08:08:36;;;;;;;12.95;11.65;;;10.80;99.90;;;;;;5053151;28;20417;-72
2023/03/19 08:11:02;;;;;;;15.07;12.38;;;10.80;99.90;;;;;;5053366;28;20037;-73
2023/03/19 08:13:28;;;;;;;13.93;12.00;;;10.80;99.90;;;;;;5069627;28;20052;-72
2023/03/19 08:15:55;;;;;;;12.05;10.75;;;10.90;99.90;;;;;;5069661;28;20139;-73
2023/03/19 08:18:21;;;;;;;12.27;11.05;;;10.90;99.90;;;;;;5052894;28;20041;-73
2023/03/19 08:20:47;;;;;;;16.20;12.38;;;11.00;99.90;;;;;;5069547;28;20095;-73
2023/03/19 08:23:13;;;;;;;12.02;10.82;;;11.10;99.90;;;;;;5052637;28;20044;-73
2023/03/19 08:25:39;;;;;;;12.18;10.90;;;11.10;99.90;;;;;;5053105;28;20048;-72
2023/03/19 08:28:05;;;;;;;14.23;10.70;;;11.20;99.90;;;;;;5036120;28;20037;-72
2023/03/19 08:30:30;;;;;;;11.25;9.80;;;11.20;99.90;;;;;;5069376;28;20048;-73
2023/03/19 08:32:57;;;;;;;11.40;10.30;;;11.20;99.90;;;;;;5053080;28;20102;-73
2023/03/19 08:35:25;;;;;;;13.05;10.65;;;11.10;99.90;;;;;;5052573;28;20033;-72
2023/03/19 08:37:51;;;;;;;12.80;10.82;;;11.10;99.90;;;;;;5069290;28;20394;-73
2023/03/19 08:40:17;;;;;;;11.82;10.57;;;11.10;99.90;;;;;;5052455;28;20037;-72
2023/03/19 08:42:43;;;;;;;12.68;10.63;;;11.10;99.90;;;;;;5069436;28;20048;-72
2023/03/19 08:45:10;;;;;;;12.85;10.55;;;11.30;99.90;;;;;;5052386;28;20489;-72
2023/03/19 08:47:36;;;;;;;10.77;9.70;;;11.20;99.90;;;;;;5052692;28;20044;-72
2023/03/19 08:50:03;;;;;;;11.13;9.85;;;11.20;99.90;;;;;;5052338;28;20413;-72
2023/03/19 08:52:29;;;;;;;10.13;9.13;;;11.20;99.90;;;;;;5052333;28;20045;-74
2023/03/19 08:54:55;;;;;;;10.23;9.18;;;11.20;99.90;;;;;;5052029;28;20051;-72
2023/03/19 08:57:20;;;;;;;10.48;8.75;;;11.20;99.90;;;;;;5052176;28;20070;-72
2023/03/19 08:59:46;;;;;;;11.48;9.70;;;11.20;99.90;;;;;;5052128;28;20079;-72
2023/03/19 09:02:13;;;;;;;12.80;9.32;;;11.20;99.90;;;;;;5052474;28;20124;-72
2023/03/19 09:04:42;;;;;;;11.35;8.90;;;11.20;99.90;;;;;;5052006;28;20512;-77
2023/03/19 09:07:12;;;;;;;9.57;8.55;;;11.20;99.90;;;;;;5052096;28;20037;-76
2023/03/19 09:09:38;;;;;;;9.75;8.60;;;11.20;99.90;;;;;;5052257;28;20507;-76
2023/03/19 09:12:06;;;;;;;10.57;9.05;;;11.20;99.90;;;;;;5052189;28;20087;-76
2023/03/19 09:14:34;;;;;;;10.45;8.90;;;11.20;99.90;;;;;;5035534;28;20099;-76
2023/03/19 09:17:00;;;;;;;9.65;8.15;;;11.20;99.90;;;;;;5035579;28;20041;-77
2023/03/19 09:19:26;;;;;;;10.23;7.82;;;11.30;99.90;;;;;;5068568;28;20091;-76
2023/03/19 09:21:52;;;;;;;9.30;8.32;;;11.40;99.90;;;;;;5051855;28;20059;-76
2023/03/19 09:24:18;;;;;;;9.60;8.00;;;11.60;99.90;;;;;;5051978;28;20095;-76
2023/03/19 09:26:44;;;;;;;9.70;8.65;;;11.60;99.90;;;;;;5052058;28;20048;-77
2023/03/19 09:29:10;;;;;;;11.13;8.63;;;11.60;99.90;;;;;;5051794;28;20048;-77
2023/03/19 09:31:37;;;;;;;9.73;8.48;;;11.70;99.90;;;;;;5052094;28;20052;-77
2023/03/19 09:34:02;;;;;;;11.63;7.60;;;11.70;99.90;;;;;;5051130;28;20409;-77
2023/03/19 09:36:28;;;;;;;9.38;7.80;;;11.90;99.90;;;;;;5035431;28;20040;-77
2023/03/19 09:38:54;;;;;;;10.85;8.05;;;12.10;99.90;;;;;;5051638;28;20044;-77
2023/03/19 09:41:39;;;;;;;8.77;7.53;;;12.30;99.90;;;;;;5035115;28;20543;-76
2023/03/19 09:44:10;;;;;;;10.55;8.60;;;12.30;99.90;;;;;;5051887;28;20052;-77
2023/03/19 09:46:54;;;;;;;9.35;8.45;;;12.30;99.90;;;;;;5051612;28;20128;-76
2023/03/19 09:49:26;;;;;;;12.18;8.73;;;12.10;99.90;;;;;;5051661;28;20053;-77
2023/03/19 09:52:37;;;;;;;10.30;8.38;;;12.10;99.90;;;;;;5051666;28;20045;-77
2023/03/19 09:55:26;;;;;;;9.45;8.45;;;11.90;99.90;;;;;;5051389;28;20049;-75
2023/03/19 09:57:55;;;;;;;10.50;9.23;;;11.80;99.90;;;;;;5046306;28;20075;-75
2023/03/19 10:00:26;;;;;;;14.40;8.45;;;11.70;99.90;;;;;;5051407;28;20041;-75
2023/03/19 10:03:20;;;;;;;9.88;7.47;;;11.60;99.90;;;;;;5051796;28;20067;-75
2023/03/19 10:06:03;;;;;;;9.23;8.10;;;11.60;99.90;;;;;;5051780;28;20037;-76
2023/03/19 10:08:35;;;;;;;10.07;8.27;;;11.60;99.90;;;;;;5035051;28;20040;-76
2023/03/19 10:11:23;;;;;;;9.48;8.48;;;11.60;99.90;;;;;;5034805;28;20041;-75
2023/03/19 10:14:28;;;;;;;10.60;9.00;;;11.50;99.90;;;;;;5051567;28;20068;-76
2023/03/19 10:16:56;;;;;;;10.75;9.23;;;11.50;99.90;;;;;;5051396;28;20049;-75
2023/03/19 10:19:30;;;;;;;11.05;9.07;;;11.50;99.90;;;;;;5067914;28;20048;-75
2023/03/19 10:22:02;;;;;;;10.20;8.75;;;11.50;99.90;;;;;;5051364;28;20048;-75
2023/03/19 10:24:35;;;;;;;11.30;9.97;;;11.50;99.90;;;;;;5051319;28;20184;-74
2023/03/19 10:27:18;;;;;;;10.93;9.70;;;11.60;99.90;;;;;;5069153;28;20064;-75
2023/03/19 10:29:45;;;;;;;11.60;9.50;;;11.60;99.90;;;;;;5051330;28;20404;-75
2023/03/19 10:32:17;;;;;;;12.93;10.50;;;11.60;99.90;;;;;;5051255;28;20048;-76
2023/03/19 10:34:47;;;;;;;11.48;10.27;;;11.60;99.90;;;;;;5051398;28;20079;-76
2023/03/19 10:37:28;;;;;;;15.35;10.63;;;11.60;99.90;;;;;;5051201;28;20471;-76
2023/03/19 10:39:58;;;;;;;11.70;10.50;;;11.60;99.90;;;;;;5051128;28;20041;-76
2023/03/19 10:43:14;;;;;;;13.82;11.27;;;11.60;99.90;;;;;;5051144;28;20044;-75
2023/03/19 10:45:40;;;;;;;13.32;11.02;;;11.60;99.90;;;;;;5016105;28;20045;-75
2023/03/19 10:48:14;;;;;;;14.68;12.30;;;11.60;99.90;;;;;;5017316;28;20128;-76
2023/03/19 10:50:58;;;;;;;15.60;12.70;;;11.60;99.90;;;;;;5017531;28;20517;-76
2023/03/19 10:53:34;;;;;;;15.32;13.73;;;11.70;99.90;;;;;;5017207;28;20391;-75
2023/03/19 10:56:18;;;;;;;14.57;12.98;;;11.60;99.90;;;;;;5033709;28;20051;-75
2023/03/19 10:58:59;;;;;;;13.93;12.52;;;11.70;99.90;;;;;;5017548;28;20037;-75
2023/03/19 11:01:31;;;;;;;14.50;12.82;;;11.70;99.90;;;;;;5017307;28;20046;-75
2023/03/19 11:03:58;;;;;;;13.15;11.82;;;11.70;99.90;;;;;;5016967;28;20551;-74
2023/03/19 11:06:36;;;;;;;14.68;12.65;;;11.70;99.90;;;;;;5001138;28;20494;-75
2023/03/19 11:09:07;;;;;;;14.90;13.40;;;11.80;99.90;;;;;;5000790;28;20045;-75
2023/03/19 11:11:41;;;;;;;15.85;13.93;;;11.80;99.90;;;;;;5016976;28;20045;-75
2023/03/19 11:14:23;;;;;;;15.23;13.63;;;11.80;99.90;;;;;;5033378;28;20042;-74
2023/03/19 11:17:02;;;;;;;14.05;12.63;;;11.80;99.90;;;;;;5016873;28;20045;-75
2023/03/19 11:19:37;;;;;;;14.65;13.20;;;11.80;99.90;;;;;;5016809;28;20132;-76
2023/03/19 11:22:20;;;;;;;12.77;11.48;;;11.90;99.90;;;;;;5023526;28;20057;-74
2023/03/19 11:25:00;;;;;;;13.98;12.20;;;11.90;99.90;;;;;;5054003;28;20087;-74
2023/03/19 11:27:33;;;;;;;13.63;12.13;;;11.90;99.90;;;;;;5053969;28;20409;-74
2023/03/19 11:29:59;;;;;;;;;;;11.90;99.90;;;;;;5054334;28;20517;-75
2023/03/19 11:32:37;;;;;;;13.88;12.50;;;11.80;99.90;;;;;;5053869;28;20370;-74
2023/03/19 11:35:14;;;;;;;12.82;11.48;;;11.80;99.90;;;;;;5054065;28;20040;-74
2023/03/19 11:38:00;;;;;;;13.07;11.73;;;12.00;99.90;;;;;;5037165;28;20041;-75
2023/03/19 11:40:36;;;;;;;12.40;11.10;;;12.10;99.90;;;;;;5037031;28;20528;-76
2023/03/19 11:43:40;;;;;;;13.73;11.40;;;12.20;99.90;;;;;;5054257;28;20041;-76
2023/03/19 11:46:38;;;;;;;12.15;10.93;;;12.70;99.90;;;;;;5053593;28;20037;-75
2023/03/19 11:49:12;;;;;;;12.18;10.98;;;13.20;99.90;;;;;;5031759;28;20061;-75
2023/03/19 11:51:50;;;;;;;12.93;10.32;;;13.90;99.90;;;;;;5053727;28;20152;-75
2023/03/19 11:54:40;;;;;;;12.95;10.93;;;14.00;99.90;;;;;;5053229;28;20091;-75
2023/03/19 11:57:27;;;;;;;12.57;11.32;;;13.80;99.90;;;;;;5069309;28;20059;-76
2023/03/19 12:00:11;;;;;;;13.32;11.48;;;13.60;99.90;;;;;;5053362;28;20033;-76
2023/03/19 12:02:57;;;;;;;12.93;11.18;;;13.30;99.90;;;;;;5053518;28;20041;-76
2023/03/19 12:05:32;;;;;;;14.18;12.07;;;13.20;99.90;;;;;;5053209;28;20120;-75
2023/03/19 12:08:26;;;;;;;14.73;12.27;;;12.90;99.90;;;;;;5054072;28;20047;-75
2023/03/19 12:11:11;;;;;;;13.45;11.38;;;12.80;99.90;;;;;;5053448;28;20048;-76
2023/03/19 12:13:36;;;;;;;12.40;11.10;;;12.70;99.90;;;;;;5053365;28;20128;-75
2023/03/19 12:16:29;;;;;;;13.20;11.80;;;12.70;99.90;;;;;;5053217;28;20451;-76
2023/03/19 12:19:00;;;;;;;13.88;11.07;;;12.70;99.90;;;;;;5069937;28;20037;-76
2023/03/19 12:21:53;;;;;;;14.18;12.13;;;12.60;99.90;;;;;;5053228;28;20036;-76
2023/03/19 12:24:46;;;;;;;13.95;12.38;;;12.60;99.90;;;;;;5036427;28;20153;-75
2023/03/19 12:27:26;;;;;;;12.32;11.02;;;12.50;99.90;;;;;;5043761;28;20052;-75
2023/03/19 12:30:00;;;;;;;13.20;11.80;;;12.60;99.90;;;;;;5053387;28;20098;-75
2023/03/19 12:32:45;;;;;;;13.70;12.18;;;12.60;99.90;;;;;;5069571;28;20211;-75
2023/03/19 12:35:17;;;;;;;14.55;11.85;;;12.60;99.90;;;;;;5052939;28;20044;-75
2023/03/19 12:38:08;;;;;;;13.23;11.80;;;12.60;99.90;;;;;;5069349;28;20033;-76
2023/03/19 12:40:47;;;;;;;14.88;12.18;;;12.60;99.90;;;;;;5069178;28;20128;-76
2023/03/19 12:43:17;;;;;;;13.50;12.10;;;12.60;99.90;;;;;;5052932;28;20037;-76
2023/03/19 12:45:48;;;;;;;13.65;11.02;;;12.70;99.90;;;;;;5052696;28;20045;-75
2023/03/19 12:48:26;;;;;;;14.10;11.23;;;12.80;99.90;;;;;;5052486;28;20045;-76
2023/03/19 12:50:56;;;;;;;16.27;12.57;;;12.90;99.90;;;;;;5069343;28;20543;-76
2023/03/19 12:53:27;;;;;;;14.52;12.52;;;13.00;99.90;;;;;;5052250;28;20072;-75